createdAt,value
2018-11-05T00:00:36.998Z,28.80
2018-11-05T00:03:06.951Z,27.90
2018-11-05T00:05:36.119Z,25.70
2018-11-05T00:08:05.322Z,28.73
2018-11-05T00:10:34.486Z,29.90
2018-11-05T00:13:03.639Z,25.43
2018-11-05T00:15:32.758Z,27.47
2018-11-05T00:18:02.074Z,28.40
2018-11-05T00:20:31.146Z,27.90
2018-11-05T00:23:00.251Z,30.17
2018-11-05T00:25:29.342Z,29.10
2018-11-05T00:27:58.445Z,29.40
2018-11-05T00:30:27.587Z,28.43
2018-11-05T00:32:56.684Z,29.00
2018-11-05T00:35:26.022Z,32.00
2018-11-05T00:37:55.623Z,27.17
2018-11-05T00:40:24.891Z,32.23
2018-11-05T00:42:57.990Z,27.70
2018-11-05T00:45:27.221Z,30.00
2018-11-05T00:47:56.943Z,27.50
2018-11-05T00:50:26.106Z,28.80
2018-11-05T00:52:55.287Z,28.57
2018-11-05T00:55:24.526Z,28.80
2018-11-05T00:57:53.751Z,28.47
2018-11-05T01:00:22.986Z,30.17
2018-11-05T01:02:52.223Z,27.97
2018-11-05T01:05:21.394Z,30.20
2018-11-05T01:07:50.562Z,30.17
2018-11-05T01:10:19.893Z,26.73
2018-11-05T01:12:49.470Z,30.60
2018-11-05T01:15:18.674Z,27.67
2018-11-05T01:17:47.840Z,28.83
2018-11-05T01:20:17.051Z,29.97
2018-11-05T01:22:46.217Z,26.93
2018-11-05T01:25:16.491Z,26.93
2018-11-05T01:27:45.578Z,26.97
2018-11-05T01:30:14.670Z,30.07
2018-11-05T01:32:43.858Z,27.07
2018-11-05T01:35:13.830Z,27.70
2018-11-05T01:37:43.191Z,25.60
2018-11-05T01:40:14.185Z,25.20
2018-11-05T01:42:43.427Z,25.03
2018-11-05T01:45:13.769Z,27.60
2018-11-05T01:47:43.490Z,23.13
2018-11-05T01:50:14.918Z,25.50
2018-11-05T01:52:44.434Z,27.77
2018-11-05T01:55:13.613Z,25.30
2018-11-05T01:57:42.926Z,27.80
2018-11-05T02:00:14.980Z,27.77
2018-11-05T02:02:45.095Z,30.40
2018-11-05T02:05:14.392Z,24.93
2018-11-05T02:07:44.768Z,26.53
2018-11-05T02:10:16.189Z,27.10
2018-11-05T02:12:46.271Z,23.87
2018-11-05T02:15:15.599Z,27.80
2018-11-05T02:17:45.975Z,24.73
2018-11-05T02:20:16.157Z,25.37
2018-11-05T02:22:45.299Z,27.67
2018-11-05T02:25:14.746Z,29.67
2018-11-05T02:27:43.995Z,28.07
2018-11-05T02:30:16.298Z,31.53
2018-11-05T02:32:46.059Z,29.17
2018-11-05T02:35:16.099Z,30.23
2018-11-05T02:37:46.539Z,28.67
2018-11-05T02:40:16.963Z,30.80
2018-11-05T02:42:47.011Z,29.60
2018-11-05T02:45:17.267Z,33.47
2018-11-05T02:47:46.419Z,31.73
2018-11-05T02:50:16.228Z,29.80
2018-11-05T02:52:46.387Z,29.50
2018-11-05T02:55:15.566Z,29.90
2018-11-05T02:57:46.798Z,28.00
2018-11-05T03:00:19.004Z,29.63
2018-11-05T03:02:51.442Z,31.13
2018-11-05T03:05:23.130Z,28.10
2018-11-05T03:07:53.834Z,31.10
2018-11-05T03:10:23.841Z,25.37
2018-11-05T03:12:55.004Z,29.23
2018-11-05T03:15:24.740Z,28.30
2018-11-05T03:17:54.578Z,31.77
2018-11-05T03:20:24.523Z,35.57
2018-11-05T03:22:54.234Z,33.13
2018-11-05T03:25:23.899Z,29.70
2018-11-05T03:27:53.090Z,29.00
2018-11-05T03:30:22.306Z,26.87
2018-11-05T03:32:51.446Z,26.57
2018-11-05T03:35:21.112Z,26.10
2018-11-05T03:37:50.462Z,29.00
2018-11-05T03:40:20.478Z,28.17
2018-11-05T03:42:49.729Z,29.63
2018-11-05T03:45:19.301Z,31.40
2018-11-05T03:47:48.498Z,30.77
2018-11-05T03:50:19.179Z,32.90
2018-11-05T03:52:48.625Z,45.63
2018-11-05T03:55:18.400Z,29.70
2018-11-05T03:57:47.581Z,30.47
2018-11-05T04:00:17.737Z,40.27
2018-11-05T04:02:46.886Z,33.00
2018-11-05T04:05:16.710Z,34.20
2018-11-05T04:07:46.069Z,40.63
2018-11-05T04:10:16.031Z,31.37
2018-11-05T04:12:45.178Z,32.50
2018-11-05T04:15:14.290Z,35.70
2018-11-05T04:17:45.576Z,32.70
2018-11-05T04:20:15.466Z,35.53
2018-11-05T04:22:45.397Z,33.40
2018-11-05T04:25:14.534Z,35.37
2018-11-05T04:27:43.794Z,33.20
2018-11-05T04:30:14.813Z,39.03
2018-11-05T04:32:44.483Z,37.43
2018-11-05T04:35:13.461Z,36.67
2018-11-05T04:37:42.681Z,35.17
2018-11-05T04:40:12.242Z,39.07
2018-11-05T04:42:41.373Z,36.13
2018-11-05T04:45:12.097Z,43.03
2018-11-05T04:47:41.838Z,36.17
2018-11-05T04:50:12.478Z,32.60
2018-11-05T04:52:41.955Z,27.93
2018-11-05T04:55:11.494Z,29.33
2018-11-05T04:57:40.689Z,32.93
2018-11-05T05:00:14.274Z,33.40
2018-11-05T05:02:43.821Z,36.57
2018-11-05T05:05:14.063Z,34.07
2018-11-05T05:07:43.341Z,30.87
2018-11-05T05:10:12.489Z,25.97
2018-11-05T05:12:42.631Z,29.73
2018-11-05T05:15:12.413Z,24.80
2018-11-05T05:17:41.860Z,30.67
2018-11-05T05:20:14.665Z,29.23
2018-11-05T05:22:44.071Z,30.07
2018-11-05T05:25:13.266Z,29.47
2018-11-05T05:27:42.493Z,27.90
2018-11-05T05:30:16.950Z,26.97
2018-11-05T05:32:47.118Z,28.00
2018-11-05T05:35:16.986Z,27.97
2018-11-05T05:37:46.762Z,44.17
2018-11-05T05:40:16.262Z,28.90
2018-11-05T05:42:45.997Z,28.70
2018-11-05T05:45:15.225Z,21.13
2018-11-05T05:47:44.593Z,21.87
2018-11-05T05:50:16.356Z,24.03
2018-11-05T05:52:47.279Z,21.70
2018-11-05T05:55:16.481Z,20.30
2018-11-05T05:57:48.126Z,21.90
2018-11-05T06:00:18.213Z,54.90
2018-11-05T06:02:47.373Z,28.50
2018-11-05T06:05:16.798Z,29.37
2018-11-05T06:07:46.025Z,28.50
2018-11-05T06:10:15.866Z,30.93
2018-11-05T06:12:45.566Z,29.37
2018-11-05T06:15:16.073Z,29.80
2018-11-05T06:17:45.283Z,29.43
2018-11-05T06:20:17.216Z,27.53
2018-11-05T06:22:47.208Z,27.83
2018-11-05T06:25:16.727Z,29.60
2018-11-05T06:27:46.157Z,18.07
2018-11-05T06:30:17.666Z,18.87
2018-11-05T06:32:47.707Z,15.63
2018-11-05T06:35:17.104Z,20.77
2018-11-05T06:37:46.580Z,19.73
2018-11-05T06:40:17.727Z,24.17
2018-11-05T06:42:47.210Z,21.20
2018-11-05T06:45:19.608Z,23.33
2018-11-05T06:47:49.086Z,21.80
2018-11-05T06:50:22.401Z,20.80
2018-11-05T06:52:51.620Z,22.63
2018-11-05T06:55:20.736Z,22.03
2018-11-05T06:57:50.102Z,19.37
2018-11-05T07:00:21.510Z,18.60
2018-11-05T07:02:52.540Z,21.63
2018-11-05T07:05:21.682Z,15.00
2018-11-05T07:07:50.821Z,23.20
2018-11-05T07:10:20.170Z,19.63
2018-11-05T07:12:49.426Z,19.73
2018-11-05T07:15:19.547Z,17.07
2018-11-05T07:17:49.879Z,17.70
2018-11-05T07:20:20.803Z,17.10
2018-11-05T07:22:50.529Z,17.73
2018-11-05T07:25:19.748Z,16.37
2018-11-05T07:27:48.962Z,18.17
2018-11-05T07:30:20.273Z,18.20
2018-11-05T07:32:50.370Z,16.07
2018-11-05T07:35:19.642Z,17.83
2018-11-05T07:37:48.494Z,15.20
2018-11-05T07:40:18.593Z,18.20
2018-11-05T07:42:47.810Z,14.20
2018-11-05T07:45:21.818Z,14.87
2018-11-05T07:47:50.941Z,13.97
2018-11-05T07:50:21.183Z,12.10
2018-11-05T07:52:50.534Z,23.20
2018-11-05T07:55:20.207Z,14.27
2018-11-05T07:57:50.371Z,12.53
2018-11-05T08:00:25.312Z,11.70
2018-11-05T08:02:55.838Z,12.20
2018-11-05T08:05:25.221Z,13.43
2018-11-05T08:07:54.705Z,14.90
2018-11-05T08:10:23.934Z,19.40
2018-11-05T08:12:53.146Z,10.17
2018-11-05T08:15:23.432Z,12.13
2018-11-05T08:17:53.209Z,16.20
2018-11-05T08:20:22.339Z,16.87
2018-11-05T08:22:52.144Z,15.27
2018-11-05T08:25:21.326Z,15.63
2018-11-05T08:27:50.446Z,13.50
2018-11-05T08:30:21.733Z,13.47
2018-11-05T08:32:50.951Z,14.53
2018-11-05T08:35:20.150Z,15.73
2018-11-05T08:37:50.670Z,14.63
2018-11-05T08:40:22.275Z,13.90
2018-11-05T08:42:52.187Z,11.90
2018-11-05T08:45:22.602Z,16.27
2018-11-05T08:47:51.744Z,13.57
2018-11-05T08:50:22.237Z,13.20
2018-11-05T08:52:51.978Z,12.83
2018-11-05T08:55:23.369Z,12.40
2018-11-05T08:57:53.998Z,13.83
2018-11-05T09:00:28.486Z,12.00
2018-11-05T09:02:57.892Z,12.17
2018-11-05T09:05:27.794Z,12.10
2018-11-05T09:08:03.284Z,11.83
2018-11-05T09:10:32.707Z,11.10
2018-11-05T09:13:02.066Z,11.63
2018-11-05T09:15:31.309Z,12.30
2018-11-05T09:18:00.538Z,14.33
2018-11-05T09:20:29.835Z,12.80
2018-11-05T09:22:59.415Z,11.10
2018-11-05T09:25:28.618Z,11.23
2018-11-05T09:27:57.789Z,11.97
2018-11-05T09:30:26.940Z,11.73
2018-11-05T09:32:56.081Z,11.77
2018-11-05T09:35:25.206Z,10.60
2018-11-05T09:37:54.362Z,11.80
2018-11-05T09:40:24.641Z,12.87
2018-11-05T09:42:54.198Z,12.30
2018-11-05T09:45:25.909Z,13.67
2018-11-05T09:47:55.519Z,11.40
2018-11-05T09:50:24.698Z,12.57
2018-11-05T09:52:53.864Z,13.17
2018-11-05T09:55:23.188Z,11.83
2018-11-05T09:57:52.290Z,12.03
2018-11-05T10:00:23.591Z,11.27
2018-11-05T10:03:00.195Z,10.73
2018-11-05T10:05:29.244Z,10.90
2018-11-05T10:07:57.921Z,9.67
2018-11-05T10:10:27.542Z,11.77
2018-11-05T10:12:56.630Z,12.37
2018-11-05T10:15:25.793Z,12.03
2018-11-05T10:17:55.406Z,11.50
2018-11-05T10:20:25.360Z,12.43
2018-11-05T10:22:54.652Z,12.50
2018-11-05T10:25:23.815Z,10.80
2018-11-05T10:27:53.837Z,12.00
2018-11-05T10:30:25.843Z,11.77
2018-11-05T10:32:55.102Z,13.17
2018-11-05T10:35:30.082Z,12.27
2018-11-05T10:37:59.378Z,11.90
2018-11-05T10:40:28.744Z,12.60
2018-11-05T10:42:57.998Z,11.93
2018-11-05T10:45:27.367Z,11.87
2018-11-05T10:47:57.011Z,12.87
2018-11-05T10:50:27.147Z,11.97
2018-11-05T10:52:56.833Z,11.83
2018-11-05T10:55:26.042Z,12.70
2018-11-05T10:57:55.316Z,13.17
2018-11-05T11:00:29.782Z,11.77
2018-11-05T11:03:04.164Z,14.60
2018-11-05T11:05:33.583Z,13.80
2018-11-05T11:08:03.047Z,12.07
2018-11-05T11:10:33.297Z,14.60
2018-11-05T11:13:02.764Z,12.13
2018-11-05T11:15:31.903Z,12.03
2018-11-05T11:18:01.039Z,14.10
2018-11-05T11:20:30.799Z,12.30
2018-11-05T11:23:00.594Z,13.50
2018-11-05T11:25:29.819Z,13.50
2018-11-05T11:27:59.151Z,12.17
2018-11-05T11:30:27.867Z,11.27
2018-11-05T11:32:57.338Z,11.47
2018-11-05T11:35:26.066Z,11.20
2018-11-05T11:37:55.263Z,12.07
2018-11-05T11:40:24.846Z,12.00
2018-11-05T11:42:54.007Z,11.80
2018-11-05T11:45:24.062Z,11.57
2018-11-05T11:47:53.229Z,10.30
2018-11-05T11:50:22.702Z,10.90
2018-11-05T11:52:52.055Z,11.80
2018-11-05T11:55:22.542Z,11.90
2018-11-05T11:57:52.847Z,11.67
2018-11-05T12:00:24.444Z,12.27
2018-11-05T12:02:54.373Z,11.17
2018-11-05T12:05:23.827Z,10.87
2018-11-05T12:07:53.018Z,10.30
2018-11-05T12:10:24.488Z,12.87
2018-11-05T12:12:54.161Z,11.83
2018-11-05T12:15:23.886Z,10.33
2018-11-05T12:17:53.820Z,11.10
2018-11-05T12:20:24.387Z,12.60
2018-11-05T12:22:54.054Z,11.70
2018-11-05T12:25:23.238Z,11.77
2018-11-05T12:27:52.757Z,15.40
2018-11-05T12:30:23.415Z,11.60
2018-11-05T12:32:53.704Z,12.60
2018-11-05T12:35:23.353Z,12.90
2018-11-05T12:37:53.374Z,13.23
2018-11-05T12:40:23.630Z,12.77
2018-11-05T12:42:53.349Z,14.10
2018-11-05T12:45:23.146Z,14.13
2018-11-05T12:47:52.967Z,15.27
2018-11-05T12:50:23.544Z,13.77
2018-11-05T12:52:54.290Z,14.03
2018-11-05T12:55:23.830Z,14.17
2018-11-05T12:57:52.661Z,13.90
2018-11-05T13:00:23.775Z,14.50
2018-11-05T13:02:53.046Z,13.30
2018-11-05T13:05:22.759Z,14.87
2018-11-05T13:07:52.130Z,14.70
2018-11-05T13:10:21.339Z,16.63
2018-11-05T13:12:50.695Z,14.70
2018-11-05T13:15:20.231Z,14.57
2018-11-05T13:17:49.672Z,15.63
2018-11-05T13:20:19.978Z,15.40
2018-11-05T13:22:49.247Z,14.73
2018-11-05T13:25:18.305Z,15.10
2018-11-05T13:27:48.513Z,14.63
2018-11-05T13:30:18.058Z,14.50
2018-11-05T13:32:47.258Z,15.57
2018-11-05T13:35:17.908Z,15.73
2018-11-05T13:37:47.563Z,14.83
2018-11-05T13:40:17.648Z,13.57
2018-11-05T13:42:47.258Z,14.20
2018-11-05T13:45:16.910Z,15.90
2018-11-05T13:47:46.848Z,15.20
2018-11-05T13:50:16.098Z,14.70
2018-11-05T13:52:44.910Z,13.53
2018-11-05T13:55:15.370Z,14.77
2018-11-05T13:57:45.664Z,14.60
2018-11-05T14:00:16.242Z,13.93
2018-11-05T14:02:45.745Z,14.43
2018-11-05T14:05:15.278Z,12.60
2018-11-05T14:07:44.573Z,13.30
2018-11-05T14:10:17.111Z,14.27
2018-11-05T14:12:47.375Z,14.93
2018-11-05T14:15:16.457Z,13.47
2018-11-05T14:17:46.210Z,14.73
2018-11-05T14:20:16.837Z,13.73
2018-11-05T14:22:45.958Z,13.07
2018-11-05T14:25:17.233Z,13.47
2018-11-05T14:27:47.980Z,13.60
2018-11-05T14:30:17.533Z,15.53
2018-11-05T14:32:48.058Z,14.67
2018-11-05T14:35:18.582Z,11.87
2018-11-05T14:37:47.840Z,14.30
2018-11-05T14:40:17.965Z,13.60
2018-11-05T14:42:47.270Z,14.10
2018-11-05T14:45:19.626Z,14.17
2018-11-05T14:47:49.977Z,13.57
2018-11-05T14:50:20.903Z,14.83
2018-11-05T14:52:50.099Z,13.13
2018-11-05T14:55:20.675Z,13.13
2018-11-05T14:57:53.960Z,12.80
2018-11-05T15:00:25.542Z,11.93
2018-11-05T15:02:56.228Z,12.47
2018-11-05T15:05:25.576Z,12.37
2018-11-05T15:07:54.921Z,12.30
2018-11-05T15:10:25.293Z,12.23
2018-11-05T15:12:54.461Z,13.73
2018-11-05T15:15:24.301Z,12.83
2018-11-05T15:17:53.655Z,13.03
2018-11-05T15:20:23.816Z,13.63
2018-11-05T15:22:52.914Z,14.03
2018-11-05T15:25:22.375Z,14.40
2018-11-05T15:27:51.585Z,14.43
2018-11-05T15:30:21.937Z,14.40
2018-11-05T15:32:51.252Z,15.80
2018-11-05T15:35:20.501Z,16.03
2018-11-05T15:37:49.886Z,14.47
2018-11-05T15:40:20.615Z,15.30
2018-11-05T15:42:49.824Z,14.73
2018-11-05T15:45:20.517Z,15.73
2018-11-05T15:47:49.739Z,17.30
2018-11-05T15:50:20.669Z,15.20
2018-11-05T15:52:50.282Z,17.57
2018-11-05T15:55:19.011Z,17.80
2018-11-05T15:57:48.186Z,16.70
2018-11-05T16:00:18.667Z,17.70
2018-11-05T16:02:50.436Z,17.00
2018-11-05T16:05:19.734Z,17.63
2018-11-05T16:07:48.918Z,18.90
2018-11-05T16:10:18.751Z,17.60
2018-11-05T16:12:48.256Z,16.70
2018-11-05T16:15:17.432Z,19.07
2018-11-05T16:17:46.583Z,18.53
2018-11-05T16:20:18.033Z,17.20
2018-11-05T16:22:47.951Z,19.23
2018-11-05T16:25:17.093Z,20.60
2018-11-05T16:27:46.258Z,19.73
2018-11-05T16:30:16.885Z,20.17
2018-11-05T16:32:46.766Z,18.87
2018-11-05T16:35:16.743Z,19.17
2018-11-05T16:37:45.913Z,19.70
2018-11-05T16:40:16.306Z,18.97
2018-11-05T16:42:46.437Z,20.20
2018-11-05T16:45:15.573Z,18.40
2018-11-05T16:47:45.057Z,22.43
2018-11-05T16:50:24.588Z,20.10
2018-11-05T16:52:54.574Z,19.00
2018-11-05T16:55:23.971Z,19.70
2018-11-05T16:57:53.269Z,21.40
2018-11-05T17:00:23.957Z,20.83
2018-11-05T17:02:53.131Z,21.43
2018-11-05T17:05:22.269Z,22.73
2018-11-05T17:07:51.513Z,20.63
2018-11-05T17:10:20.656Z,24.97
2018-11-05T17:12:49.773Z,22.67
2018-11-05T17:15:19.053Z,23.17
2018-11-05T17:17:48.284Z,24.47
2018-11-05T17:20:18.885Z,23.77
2018-11-05T17:22:49.453Z,23.43
2018-11-05T17:25:18.734Z,25.27
2018-11-05T17:27:48.754Z,24.00
2018-11-05T17:30:21.465Z,24.40
2018-11-05T17:32:50.858Z,24.00
2018-11-05T17:35:20.407Z,24.37
2018-11-05T17:37:49.844Z,25.13
2018-11-05T17:40:20.635Z,26.27
2018-11-05T17:42:49.689Z,23.87
2018-11-05T17:45:19.809Z,25.20
2018-11-05T17:47:49.346Z,24.13
2018-11-05T17:50:19.746Z,42.03
2018-11-05T17:52:49.305Z,25.37
2018-11-05T17:55:18.834Z,22.70
2018-11-05T17:57:48.766Z,23.90
2018-11-05T18:00:24.209Z,27.00
2018-11-05T18:02:53.809Z,25.00
2018-11-05T18:05:24.167Z,27.27
2018-11-05T18:07:53.370Z,28.60
2018-11-05T18:10:22.678Z,27.40
2018-11-05T18:12:51.893Z,27.30
2018-11-05T18:15:21.020Z,28.83
2018-11-05T18:17:50.235Z,30.03
2018-11-05T18:20:19.435Z,32.30
2018-11-05T18:22:48.623Z,33.63
2018-11-05T18:25:19.563Z,36.00
2018-11-05T18:27:48.989Z,40.73
2018-11-05T18:30:18.506Z,35.90
2018-11-05T18:32:48.017Z,36.07
2018-11-05T18:35:17.677Z,37.57
2018-11-05T18:37:49.477Z,38.40
2018-11-05T18:40:18.637Z,35.73
2018-11-05T18:42:47.851Z,37.47
2018-11-05T18:45:17.108Z,37.93
2018-11-05T18:47:46.225Z,40.60
2018-11-05T18:50:16.337Z,41.60
2018-11-05T18:52:45.861Z,39.20
2018-11-05T18:55:16.421Z,37.10
2018-11-05T18:57:45.686Z,39.40
2018-11-05T19:00:25.968Z,38.87
2018-11-05T19:02:56.797Z,37.70
2018-11-05T19:05:27.969Z,38.27
2018-11-05T19:07:57.941Z,41.57
2018-11-05T19:10:27.286Z,39.57
2018-11-05T19:12:57.325Z,37.60
2018-11-05T19:15:26.721Z,38.10
2018-11-05T19:17:55.980Z,36.97
2018-11-05T19:20:24.722Z,40.67
2018-11-05T19:22:54.142Z,44.07
2018-11-05T19:25:23.322Z,43.10
2018-11-05T19:27:52.746Z,39.97
2018-11-05T19:30:24.481Z,42.97
2018-11-05T19:32:53.966Z,39.73
2018-11-05T19:35:24.739Z,43.50
2018-11-05T19:37:53.861Z,40.77
2018-11-05T19:40:22.993Z,40.40
2018-11-05T19:42:52.723Z,44.53
2018-11-05T19:45:23.097Z,47.80
2018-11-05T19:47:52.295Z,44.33
2018-11-05T19:50:22.769Z,42.57
2018-11-05T19:52:53.051Z,45.00
2018-11-05T19:55:22.869Z,40.70
2018-11-05T19:57:52.706Z,41.33
2018-11-05T20:00:27.305Z,42.00
2018-11-05T20:02:58.058Z,40.03
2018-11-05T20:05:27.277Z,42.17
2018-11-05T20:07:57.573Z,42.23
2018-11-05T20:10:26.954Z,43.30
2018-11-05T20:12:56.510Z,44.47
2018-11-05T20:15:25.683Z,49.10
2018-11-05T20:17:57.770Z,52.43
2018-11-05T20:20:27.459Z,50.20
2018-11-05T20:22:57.225Z,51.57
2018-11-05T20:25:26.861Z,48.30
2018-11-05T20:27:56.170Z,47.23
2018-11-05T20:30:26.726Z,46.77
2018-11-05T20:32:58.954Z,53.10
2018-11-05T20:35:28.478Z,51.83
2018-11-05T20:37:58.489Z,48.67
2018-11-05T20:40:29.230Z,53.20
2018-11-05T20:42:58.337Z,46.10
2018-11-05T20:45:28.074Z,46.37
2018-11-05T20:47:57.303Z,50.13
2018-11-05T20:50:26.538Z,46.17
2018-11-05T20:52:56.147Z,46.77
2018-11-05T20:55:25.240Z,49.90
2018-11-05T20:57:55.150Z,49.63
2018-11-05T21:00:25.013Z,54.50
2018-11-05T21:02:54.169Z,55.27
2018-11-05T21:05:23.347Z,54.23
2018-11-05T21:07:53.160Z,47.90
2018-11-05T21:10:22.320Z,54.13
2018-11-05T21:12:51.626Z,47.10
2018-11-05T21:15:22.107Z,44.07
2018-11-05T21:17:52.598Z,42.17
2018-11-05T21:20:22.015Z,39.97
2018-11-05T21:22:52.204Z,43.00
2018-11-05T21:25:21.914Z,41.70
2018-11-05T21:27:51.438Z,40.67
2018-11-05T21:30:21.825Z,44.60
2018-11-05T21:32:51.005Z,42.50
2018-11-05T21:35:21.409Z,43.10
2018-11-05T21:37:50.556Z,44.70
2018-11-05T21:40:20.234Z,42.90
2018-11-05T21:42:49.381Z,42.17
2018-11-05T21:45:18.675Z,39.30
2018-11-05T21:47:47.839Z,38.80
2018-11-05T21:50:18.425Z,37.80
2018-11-05T21:52:47.978Z,34.37
2018-11-05T21:55:17.170Z,38.27
2018-11-05T21:57:47.986Z,40.53
2018-11-05T22:00:21.189Z,39.03
2018-11-05T22:02:55.593Z,38.97
2018-11-05T22:05:24.869Z,35.97
2018-11-05T22:07:54.473Z,35.40
2018-11-05T22:10:24.533Z,36.40
2018-11-05T22:12:53.982Z,39.27
2018-11-05T22:15:23.250Z,43.80
2018-11-05T22:17:52.554Z,41.90
2018-11-05T22:20:22.506Z,44.33
2018-11-05T22:22:52.370Z,42.23
2018-11-05T22:25:22.286Z,38.80
2018-11-05T22:27:53.257Z,36.50
2018-11-05T22:30:22.405Z,40.63
2018-11-05T22:32:52.051Z,39.27
2018-11-05T22:35:23.549Z,39.90
2018-11-05T22:37:53.463Z,39.67
2018-11-05T22:40:23.394Z,39.47
2018-11-05T22:42:53.294Z,39.67
2018-11-05T22:45:26.509Z,36.10
2018-11-05T22:47:56.476Z,40.00
2018-11-05T22:50:25.868Z,41.20
2018-11-05T22:52:55.394Z,39.97
2018-11-05T22:55:25.322Z,40.83
2018-11-05T22:57:55.222Z,39.87
2018-11-05T23:00:30.494Z,42.70
2018-11-05T23:03:05.402Z,38.70
2018-11-05T23:05:34.995Z,34.87
2018-11-05T23:08:05.500Z,35.53
2018-11-05T23:10:34.267Z,33.10
2018-11-05T23:13:03.399Z,35.90
2018-11-05T23:15:32.574Z,34.87
2018-11-05T23:18:01.781Z,39.73
2018-11-05T23:20:30.999Z,36.80
2018-11-05T23:23:00.269Z,38.37
2018-11-05T23:25:29.962Z,39.90
2018-11-05T23:27:59.110Z,36.17
2018-11-05T23:30:28.221Z,39.20
2018-11-05T23:32:58.178Z,41.93
2018-11-05T23:35:28.505Z,44.53
2018-11-05T23:37:57.818Z,45.00
2018-11-05T23:40:26.987Z,42.70
2018-11-05T23:42:56.102Z,40.63
2018-11-05T23:45:25.241Z,42.07
2018-11-05T23:47:54.361Z,42.43
2018-11-05T23:50:23.501Z,38.33
2018-11-05T23:52:52.654Z,36.87
2018-11-05T23:55:21.809Z,37.53
2018-11-05T23:57:50.937Z,38.00
